Airfield :
LOGIN :

Register | Disclaimer

   EN    FR    IT 

 










Legend :    VFR   Marginal VFR   IFR   Intensive IFR   Very Intensive IFR
Visi :
Ceiling :
>= 8 km
>= 3000ft
5 to 8 km
1000 to 3000 ft
1500m to 5 km
500 to 1000 ft
800 to 1500m
200 to 500 ft
< 800m
< 200 ft
Symbols :   Thunderstorms  Fog  Heavy snow  Heavy precipitations  Wind > 20 kt
SIGMETs :     Misc.  Thunderstorms  Icing  Turbulence  Mountain Waves  Volcanic Ashes







- Airport Elevation : 313 ft
- IATA code : LEH
- Download approach charts


LFOH - Le Havre Octeville

CURRENT METAR :
  • 190530Z AUTO 07009KT CAVOK 00/M04 Q1017

EXPIRED METARs :
  • 190500Z AUTO 07009KT CAVOK 01/M04 Q1017
  • 190430Z AUTO 07010KT CAVOK 01/M04 Q1018
  • 190400Z AUTO 08008KT CAVOK 01/M04 Q1018
  • 190330Z AUTO 07010KT CAVOK 01/M04 Q1018
  • 190300Z AUTO 08009KT CAVOK 01/M04 Q1018

TAF TAF LFOH
Valid from the 19 at 06:00 until the 20 at 06:00 UTC


190500Z 1906/2006 07012KT CAVOK
TEMPO 1908/1920 07017G27KT
TEMPO 1910/1913 BKN013
ATIS : +33 2 35 54 64 93
No reported NOTAMs for that airfield.



MET'MAP, your aeronautical weather chart ! - Copyright ORBIFLY December 2007 - Disclaimer

ORBIFLY MET'MAP TEAM :

Programming & Development : Alexandra Zaïnal
Concept & Development : Baudouin d'Aumeries
Co-Development & Prog : Marc-Olivier Méhu
Technical & hardware support : Manuel Goepfert

Contact : metmap@orbifly.com




SOURCES & CREDITS :

   NOAA